Reno (UNR), Valley Road, Nevada Weather observations

Data are for observation ending at time listed.
 Day   Time    Ave.   Ave.  Ave.  Vector   Max.    Total    Solar   Rl      Baro.   Ave.  
  of    of     Air    Rel.  Wind   Wind    Wind   Precip.   Rad.    in      Pres.   Soil  
Year   Day     Temp.  Hum.  Speed  Dir.    Gust                                     Temp. 
2026   (PST)    F      %     mph   deg.    mph      in.     W/m2    W/m2     mb.     F   
-----------------------------------------------------------------------------------------
 128    4:00   45.9    65    1.6   332      3.3     0.00       0     280    866.0   64.6
 128    4:10   45.3    66    1.3   200      2.6     0.00       0     279    865.8   64.4
 128    4:20   45.2    66    2.5   323      3.6     0.00       0     280    865.9   64.3
 128    4:30   44.5    68    1.6   330      2.8     0.00       0     278    865.9   64.1
 128    4:40   44.1    68    1.9   313      3.5     0.00       1     276    866.1   64.0
 128    4:50   44.0    68    1.5   220      3.0     0.00       3     276    866.0   63.8
 128    5:00   43.7    69    1.9   313      3.0     0.00       8     276    866.1   63.6
 128    5:10   43.5    69    0.7   323      2.7     0.00      18     274    866.2   63.5
 128    5:20   45.3    65    1.4   324      2.7     0.00      39     273    866.2   63.3
 128    5:30   47.4    61    1.2   311      2.9     0.00      67     276    866.3   63.2
 128    5:40   49.0    55    2.4   289      4.0     0.00     101     278    866.4   63.0
 128    5:50   51.0    52    2.9   247      3.8     0.00     139     281    866.5   62.9
 128    6:00   53.4    48    1.5    21      2.7     0.00     166     283    866.5   62.7
 128    6:10   55.3    44    0.2   341      1.1     0.00     196     287    866.7   62.6
 128    6:20   58.4    38    0.8    83      2.3     0.00     229     290    866.8   62.5
 128    6:30   58.0    38    1.3   343      2.4     0.00     269     295    866.9   62.4
 128    6:40   58.3    38    1.7    34      2.8     0.00     306     297    866.8   62.3
 128    6:50   57.9    38    2.4    44      3.7     0.00     341     299    866.8   62.3
 128    7:00   58.6    38    1.8    44      3.1     0.00     377     304    866.8   62.2
 128    7:10   60.4    36    1.4    59      3.1     0.00     412     305    866.9   62.2
 128    7:20   62.5    34    1.5   129      3.4     0.00     448     310    866.9   62.3
 128    7:30   66.0    31    2.2   161      4.5     0.00     478     314    866.9   62.3
 128    7:40   66.0    30    2.3   106      4.6     0.00     515     319    866.8   62.4
 128    7:50   64.5    31    2.7    95      5.6     0.00     552     319    866.7   62.5
 128    8:00   65.5    30    3.1   113      6.0     0.00     587     322    866.7   62.6
 128    8:10   67.6    27    2.4   135      4.9     0.00     622     324    866.7   62.7
 128    8:20   68.5    27    3.4   122      5.9     0.00     648     327    866.6   62.9
 128    8:30   68.7    27    3.2   155      6.4     0.00     686     329    866.5   63.0
 128    8:40   68.4    25    3.4   220      6.5     0.00     719     330    866.5   63.3
 128    8:50   69.7    24    2.9   168      5.4     0.00     749     333    866.4   63.5
 128    9:00   71.2    23    2.5   129      6.0     0.00     778     337    866.4   63.7
 128    9:10   71.1    22    2.9    97      8.0     0.00     807     339    866.2   63.9
 128    9:20   70.3    22    2.4     5      5.4     0.00     831     343    866.3   64.0
 128    9:30   72.6    19    3.3   245      6.9     0.00     860     345    866.2   64.1
 128    9:40   72.7    21    2.6   141      7.5     0.00     883     347    866.2   64.2
 128    9:50   74.4    19    3.4   196      7.2     0.00     906     348    866.1   64.3
 128   10:00   74.9    18    2.9   145      7.3     0.00     931     347    866.1   64.3
 128   10:10   75.5    17    3.0   181      8.4     0.00     952     348    866.0   64.4
 128   10:20   77.5    16    4.1   168     11.2     0.00     996     356    865.9   64.4
 128   10:30   78.2    16    4.3   154     10.7     0.00    1030     361    865.8   64.6
 128   10:40   77.9    15    3.8   181      9.2     0.00    1109     369    865.7   64.7
 128   10:50   77.0    15    3.8    84     12.0     0.00     899     376    865.6   65.0
 128   11:00   76.9    14    3.2   283      9.7     0.00    1074     376    865.4   65.4
 128   11:10   79.6    13    3.1   242     11.9     0.00    1122     380    865.3   65.7
 128   11:20   77.8    14    8.2   232     14.8     0.00     642     375    865.1   66.2
 128   11:30   78.1    14    4.8   259      9.2     0.00    1149     371    865.2   66.6
 128   11:40   76.4    14    5.4   341     10.3     0.00    1052     370    865.1   67.1
 128   11:50   77.2    14    3.8    32      7.5     0.00    1056     368    865.0   67.6
 128   12:00   79.7    14    4.8   334     10.9     0.00    1057     376    864.8   68.0
 128   12:10   77.4    14    5.1   347     10.3     0.00    1051     373    864.7   68.5
 128   12:20   78.3    15    8.1   359     14.2     0.00    1044     376    864.6   68.9
 128   12:30   78.5    15    6.7     6     14.2     0.00    1037     376    864.5   69.4
 128   12:40   78.0    15    5.2    10     10.1     0.00    1030     376    864.4   69.9
 128   12:50   78.8    16    8.1   332     14.3     0.00    1021     379    864.3   70.3
 128   13:00   78.7    16    5.6   305     13.2     0.00    1010     379    864.3   70.7
 128   13:10   80.7    16    5.4   319     15.3     0.00     998     383    864.1   71.1
 128   13:20   80.2    16    7.4   311     17.5     0.00     985     382    864.1   71.5
 128   13:30   79.1    16    8.7   340     16.8     0.00     973     380    864.0   71.8
 128   13:40   79.1    15    8.7   350     15.7     0.00     958     377    864.1   72.1
 128   13:50   79.9    15    8.1   339     17.4     0.00     942     378    863.9   72.3
 128   14:00   79.7    15    9.3     2     16.0     0.00     920     379    863.8   72.6
 128   14:10   80.0    15   11.3   343     20.7     0.00     902     379    863.7   72.7
 128   14:20   79.8    15    9.8   331     18.4     0.00     880     377    863.7   72.9
 128   14:30   80.5    14    9.1   314     18.9     0.00     859     376    863.5   73.1
 128   14:40   81.2    13    7.8   259     16.0     0.00     833     377    863.4   73.3
 128   14:50   82.2    14    6.3   312     14.8     0.00     807     381    863.4   73.5
 128   15:00   80.4    16   10.8   337     22.2     0.00     779     378    863.2   73.7
 128   15:10   82.0    14    8.7   242     14.8     0.00     753     377    863.2   73.8
 128   15:20   81.3    13    7.2   294     14.2     0.00     725     377    863.1   74.0
 128   15:30   81.5    13    7.5   270     14.4     0.00     695     378    863.1   74.2
 128   15:40   81.6    14    8.2   280     17.2     0.00     663     377    863.0   74.4
 128   15:50   80.8    14    7.7   278     13.6     0.00     632     376    863.0   74.6
 128   16:00   80.6    14    8.1   292     15.4     0.00     598     373    863.0   74.7
 128   16:10   79.8    15    9.1   311     15.3     0.00     564     372    863.0   74.9
 128   16:20   80.1    15    9.6   321     20.9     0.00     528     372    863.0   75.0
 128   16:30   80.0    15   10.1   328     17.7     0.00     488     372    862.9   75.1
 128   16:40   78.9    16   10.9   332     17.7     0.00     459     369    863.0   75.2
 128   16:50   79.1    17    9.2   322     16.4     0.00     425     370    862.9   75.3
 128   17:00   79.1    17   10.2   327     16.6     0.00     389     370    862.9   75.4
 128   17:10   78.7    17   10.4   318     18.2     0.00     353     367    862.9   75.4
 128   17:20   78.4    17   10.1   330     17.4     0.00     318     364    863.0   75.5
 128   17:30   78.1    18    9.5   337     17.8     0.00     282     364    863.0   75.5
 128   17:40   78.1    18    9.3   330     17.5     0.00     248     361    863.0   75.5
 128   17:50   77.7    18    8.6   324     16.3     0.00     213     360    863.1   75.5
 128   18:00   77.5    20    7.9   327     12.0     0.00     180     362    863.1   75.4
 128   18:10   76.7    21    8.9   319     14.2     0.00     149     362    863.2   75.4
 128   18:20   76.3    21    6.3   316     10.1     0.00     117     358    863.1   75.3
 128   18:30   76.0    22    4.8   298      8.5     0.00      80     357    863.2   75.2
 128   18:40   74.5    22    5.3   291      9.1     0.00      19     356    863.3   75.1
 128   18:50   73.0    24    5.1   286      8.7     0.00      11     353    863.5   74.9
 128   19:00   72.1    24    3.7   306      6.7     0.00       7     350    863.5   74.8
 128   19:10   71.4    25    4.1   288      6.2     0.00       3     348    863.6   74.7
 128   19:20   71.3    25    4.1   282      7.0     0.00       1     348    863.7   74.5
 128   19:30   70.8    26    5.4   253      9.3     0.00       0     347    863.8   74.4
 128   19:40   70.3    27    4.9   266      8.8     0.00       0     349    863.9   74.2
 128   19:50   70.0    27    4.5   285      9.3     0.00       0     350    864.0   74.0
 128   20:00   69.7    28    5.2   282      8.5     0.00       0     348    864.1   73.8
 128   20:10   70.0    29    5.9   278     13.0     0.00       0     350    864.1   73.6
 128   20:20   69.6    30    5.8   282     10.2     0.00       0     348    864.2   73.4
 128   20:30   69.5    33    6.2   283     13.0     0.00       0     348    864.2   73.2
 128   20:40   69.5    34    7.3   283     13.3     0.00       0     349    864.3   73.1
 128   20:50   69.3    35    6.6   288     10.9     0.00       0     348    864.4   72.9
 128   21:00   68.6    34    5.2   315      8.8     0.00       0     346    864.5   72.7
 128   21:10   67.8    33    5.9   320      9.6     0.00       0     344    864.7   72.5
 128   21:20   66.7    36    6.3   317     10.7     0.00       0     342    864.8   72.3
 128   21:30   67.2    36    4.0   306     10.1     0.00       0     343    864.8   72.2
 128   21:40   66.0    38    2.2   304      6.3     0.00       0     343    865.0   72.0
 128   21:50   65.7    39    3.5    86      5.4     0.00       0     340    865.1   71.8
 128   22:00   65.6    40    1.4    67      3.9     0.00       0     339    865.1   71.7
 128   22:10   65.6    40    1.8    10      3.1     0.00       0     337    865.0   71.5
 128   22:20   63.4    44    3.5   306      6.2     0.00       0     333    865.0   71.3
 128   22:30   63.2    45    4.2   306      6.5     0.00       0     333    865.0   71.2
 128   22:40   63.6    45    3.2   316      5.7     0.00       0     333    865.0   71.0
 128   22:50   63.2    46    1.5   293      4.2     0.00       0     332    865.1   70.9
 128   23:00   62.7    47    2.7    94      3.9     0.00       0     330    865.2   70.7
 128   23:10   61.9    48    2.0    32      4.0     0.00       0     333    865.2   70.5
 128   23:20   60.0    52    0.9   275      3.4     0.00       0     330    865.2   70.4
 128   23:30   59.1    54    1.7   316      3.8     0.00       0     326    865.2   70.2
 128   23:40   57.8    57    2.3   297      3.4     0.00       0     326    865.2   70.0
 128   23:50   57.9    58    1.6   212      3.0     0.00       0     326    865.3   69.9
 129    0:00   57.5    58    1.8   208      3.4     0.00       0     325    865.3   69.7
 129    0:10   57.5    59    2.6   295      3.9     0.00       0     322    865.4   69.5
 129    0:20   57.2    60    1.5   268      3.7     0.00       0     324    865.3   69.4
 129    0:30   57.0    60    2.0   328      3.6     0.00       0     321    865.2   69.2
 129    0:40   56.3    62    1.1   339      3.1     0.00       0     322    865.3   69.0
 129    0:50   55.6    63    1.3   319      2.5     0.00       0     321    865.4   68.9
 129    1:00   54.6    65    1.9   238      3.8     0.00       0     319    865.4   68.7
 129    1:10   55.4    64    2.3   322      3.9     0.00       0     316    865.4   68.6
 129    1:20   55.0    65    1.9   272      2.8     0.00       0     319    865.5   68.4
 129    1:30   54.1    66    2.0   327      3.8     0.00       0     316    865.5   68.3
 129    1:40   54.1    66    1.7   278      3.6     0.00       0     316    865.5   68.1
 129    1:50   53.7    66    2.4   278      5.2     0.00       0     314    865.6   67.9
 129    2:00   54.2    65    1.6   269      2.8     0.00       0     316    865.6   67.8
 129    2:10   54.2    64    1.9   173      3.6     0.00       0     314    865.6   67.6
 129    2:20   53.5    66    1.0   286      2.2     0.00       0     315    865.6   67.5
 129    2:30   53.6    66    1.2   311      2.0     0.00       0     313    865.7   67.3
 129    2:40   53.0    67    2.1   267      2.8     0.00       0     312    865.7   67.2
 129    2:50   52.5    68    2.0   260      2.9     0.00       0     311    865.8   67.0
 129    3:00   52.2    69    1.6   260      2.7     0.00       0     311    865.7   66.9
 129    3:10   51.7    70    1.5   340      2.4     0.00       0     309    865.7   66.8
 129    3:20   51.5    70    2.5   310      3.7     0.00       0     308    865.7   66.6
 129    3:30   51.5    70    2.3   299      3.9     0.00       0     308    865.9   66.5
 129    3:40   51.5    70    2.8   306      4.2     0.00       0     305    865.8   66.3
 129    3:50   51.8    71    3.1   273      5.0     0.00       0     302    865.8   66.2

Return to Reno (UNR), Nevada graphs page.


Western Regional Climate Center,wrcc@dri.edu